Time;durP1;ratioP1;P1;durP2;ratioP2;P2;SDS_P1;SDS_P2;PMS_P1;PMS_P2;Temp;Humidity;BMP_temperature;BMP_pressure;BME280_temperature;BME280_humidity;BME280_pressure;Samples;Min_cycle;Max_cycle;Signal;HPM_P1;HPM_P2
2023/11/02 00:01:01;;;;;;;6.22;2.00;;;;;;;15.83;69.94;99686.34;4971975;28;96885;-76
2023/11/02 00:03:32;;;;;;;13.07;2.22;;;;;;;15.75;70.40;99678.06;4970162;28;98930;-79
2023/11/02 00:06:21;;;;;;;3.97;2.15;;;;;;;15.78;70.19;99682.31;4972355;28;98829;-79
2023/11/02 00:09:21;;;;;;;4.72;2.03;;;;;;;15.66;70.39;99673.41;4966401;28;97951;-79
2023/11/02 00:11:53;;;;;;;4.65;1.85;;;;;;;15.69;70.15;99672.31;4973531;28;97073;-81
2023/11/02 00:14:20;;;;;;;5.95;2.20;;;;;;;15.75;69.57;99667.41;4970444;28;97752;-82
2023/11/02 00:16:49;;;;;;;3.33;1.70;;;;;;;15.95;68.36;99663.25;4972984;28;101864;-81
2023/11/02 00:19:29;;;;;;;6.03;2.03;;;;;;;15.94;68.37;99666.91;4971564;28;98646;-81
2023/11/02 00:21:56;;;;;;;6.13;1.85;;;;;;;15.85;68.25;99662.25;4974267;28;96844;-81
2023/11/02 00:24:22;;;;;;;3.60;1.70;;;;;;;16.24;67.10;99653.94;4970255;28;98004;-81
2023/11/02 00:26:49;;;;;;;6.50;1.90;;;;;;;16.28;66.63;99649.19;4970416;28;98796;-81
2023/11/02 00:29:16;;;;;;;4.20;1.90;;;;;;;16.10;66.11;99635.47;4971131;28;96765;-81
2023/11/02 00:31:42;;;;;;;3.30;1.60;;;;;;;16.01;67.18;99646.84;4973770;28;96906;-78
2023/11/02 00:34:11;;;;;;;4.43;1.90;;;;;;;16.21;66.72;99648.81;4973059;28;99664;-80
2023/11/02 00:36:37;;;;;;;7.65;2.35;;;;;;;16.17;65.86;99658.03;4973854;28;100681;-80
2023/11/02 00:39:05;;;;;;;7.53;1.92;;;;;;;15.90;66.49;99649.44;4971836;28;98979;-80
2023/11/02 00:41:31;;;;;;;5.18;1.90;;;;;;;16.05;66.21;99645.63;4972620;28;97041;-80
2023/11/02 00:43:58;;;;;;;2.58;1.58;;;;;;;16.08;65.92;99641.91;4969754;28;101480;-80
2023/11/02 00:46:26;;;;;;;5.80;2.00;;;;;;;16.15;65.67;99638.63;4973399;28;97353;-80
2023/11/02 00:48:52;;;;;;;4.47;1.65;;;;;;;16.15;65.61;99635.97;4962844;28;96979;-79
2023/11/02 00:51:25;;;;;;;5.40;2.40;;;;;;;16.16;65.28;99631.47;4972363;28;96851;-80
2023/11/02 00:53:57;;;;;;;10.18;2.03;;;;;;;15.88;66.46;99630.91;4970458;28;101710;-79
2023/11/02 00:56:28;;;;;;;7.07;2.20;;;;;;;16.00;65.56;99637.16;4970419;28;98868;-79
2023/11/02 00:58:55;;;;;;;4.47;2.00;;;;;;;15.91;65.81;99627.16;4970659;28;98482;-79
2023/11/02 01:01:23;;;;;;;5.65;1.70;;;;;;;15.92;65.95;99636.84;4973340;28;96918;-79
2023/11/02 01:03:54;;;;;;;3.22;1.73;;;;;;;16.07;65.37;99630.38;4969069;28;99012;-79
2023/11/02 01:06:26;;;;;;;2.88;1.63;;;;;;;16.13;64.57;99621.94;4972457;28;98863;-78
2023/11/02 01:08:55;;;;;;;6.57;1.77;;;;;;;16.06;64.27;99606.50;4968843;28;96940;-80
2023/11/02 01:11:28;;;;;;;3.30;1.63;;;;;;;16.01;64.88;99606.88;4972813;28;96798;-78
2023/11/02 01:13:56;;;;;;;6.70;1.85;;;;;;;15.95;65.08;99604.66;4969576;28;102061;-78
2023/11/02 01:16:22;;;;;;;4.78;1.65;;;;;;;16.31;63.91;99601.00;4967604;28;99619;-79
2023/11/02 01:18:48;;;;;;;3.80;1.77;;;;;;;16.26;63.77;99604.03;4970357;28;96885;-79
2023/11/02 01:21:16;;;;;;;2.53;1.67;;;;;;;16.30;63.15;99602.81;4968444;28;97321;-79
2023/11/02 01:23:44;;;;;;;3.10;1.42;;;;;;;16.18;63.81;99598.44;4970587;28;98878;-79
2023/11/02 01:26:54;;;;;;;3.63;1.70;;;;;;;16.19;63.50;99588.63;4969985;28;98918;-80
2023/11/02 01:29:21;;;;;;;5.30;1.77;;;;;;;16.21;63.40;99586.69;4968791;28;96829;-79
2023/11/02 01:31:48;;;;;;;5.43;1.67;;;;;;;16.35;63.04;99579.31;4972108;28;96824;-80
2023/11/02 01:34:20;;;;;;;3.70;1.67;;;;;;;16.35;62.92;99570.47;4973267;28;98225;-80
2023/11/02 01:36:46;;;;;;;4.18;1.73;;;;;;;16.38;62.97;99570.25;4971514;28;97635;-80
2023/11/02 01:39:45;;;;;;;9.85;1.83;;;;;;;16.15;63.72;99556.00;4978173;28;96828;-79
2023/11/02 01:42:19;;;;;;;3.50;1.50;;;;;;;16.02;64.31;99562.41;4972014;28;97089;-80
2023/11/02 01:44:51;;;;;;;4.80;1.63;;;;;;;15.84;64.91;99568.16;4964506;28;101104;-79
2023/11/02 01:47:33;;;;;;;4.88;1.75;;;;;;;16.01;64.34;99560.72;4967198;28;98119;-79
2023/11/02 01:50:09;;;;;;;4.70;1.77;;;;;;;15.92;64.79;99554.28;4971207;28;98680;-79
2023/11/02 01:52:53;;;;;;;5.50;1.40;;;;;;;16.01;64.37;99555.41;4966705;28;96885;-81
2023/11/02 01:55:32;;;;;;;5.82;1.92;;;;;;;15.79;64.88;99541.03;4969549;28;99395;-77
2023/11/02 01:58:06;;;;;;;3.92;1.77;;;;;;;15.93;64.35;99537.31;4965012;28;98872;-79
2023/11/02 02:00:39;;;;;;;2.33;1.67;;;;;;;15.87;64.50;99535.13;4968716;28;96839;-79
2023/11/02 02:03:14;;;;;;;5.82;1.83;;;;;;;15.77;64.94;99537.63;4975464;28;97868;-80
2023/11/02 02:05:49;;;;;;;7.85;1.73;;;;;;;15.75;65.16;99544.06;4978498;28;98897;-79
2023/11/02 02:08:24;;;;;;;5.22;1.70;;;;;;;15.66;65.87;99540.28;4969984;28;100310;-79
2023/11/02 02:11:03;;;;;;;6.55;1.70;;;;;;;15.78;65.31;99543.81;4968664;28;97440;-79
2023/11/02 02:13:43;;;;;;;7.93;1.80;;;;;;;15.60;65.76;99537.22;4966667;28;96784;-79
2023/11/02 02:16:20;;;;;;;3.03;1.50;;;;;;;15.72;65.52;99536.28;4975473;28;99383;-80
2023/11/02 02:18:52;;;;;;;3.83;1.92;;;;;;;15.67;65.50;99530.47;4967962;28;98787;-79
2023/11/02 02:21:26;;;;;;;7.20;1.83;;;;;;;15.72;65.56;99533.63;4969903;28;97227;-80
2023/11/02 02:23:56;;;;;;;5.70;1.45;;;;;;;15.67;65.00;99535.78;4964422;28;97063;-79
2023/11/02 02:26:52;;;;;;;5.88;1.85;;;;;;;15.80;65.40;99536.56;4966781;28;98816;-79
2023/11/02 02:29:52;;;;;;;3.83;1.80;;;;;;;15.83;64.75;99531.00;4975926;28;101669;-79
2023/11/02 02:32:44;;;;;;;2.72;1.45;;;;;;;15.77;65.15;99521.66;4965705;28;97181;-81
2023/11/02 02:35:15;;;;;;;5.20;1.85;;;;;;;15.88;64.49;99518.19;4974002;28;96789;-79
2023/11/02 02:37:50;;;;;;;7.63;1.95;;;;;;;15.94;64.16;99520.38;4974058;28;98851;-79
2023/11/02 02:40:22;;;;;;;3.03;1.27;;;;;;;15.91;64.25;99512.63;4973793;28;99820;-79
2023/11/02 02:42:49;;;;;;;6.22;1.58;;;;;;;15.77;64.66;99510.16;4973346;28;97580;-79
2023/11/02 02:45:17;;;;;;;2.50;1.58;;;;;;;15.81;64.34;99501.84;4974962;28;96895;-79
2023/11/02 02:47:46;;;;;;;4.05;1.45;;;;;;;15.66;64.58;99499.47;4973452;28;99416;-79
2023/11/02 02:50:18;;;;;;;4.22;1.38;;;;;;;15.62;65.04;99496.19;4973539;28;98649;-78
2023/11/02 02:52:46;;;;;;;3.67;1.33;;;;;;;15.66;64.62;99491.50;4974127;28;96792;-79
2023/11/02 02:55:16;;;;;;;6.63;1.58;;;;;;;15.64;64.80;99493.41;4974458;28;96915;-80
2023/11/02 02:57:46;;;;;;;4.53;1.48;;;;;;;15.46;64.95;99484.97;4971847;28;99276;-79
2023/11/02 03:00:15;;;;;;;3.35;1.15;;;;;;;15.48;65.03;99483.91;4969838;28;102223;-79
2023/11/02 03:02:43;;;;;;;7.60;1.45;;;;;;;15.36;65.13;99484.81;4972663;28;96868;-79
2023/11/02 03:05:12;;;;;;;6.10;1.35;;;;;;;15.30;65.28;99474.63;4973477;28;97448;-80
2023/11/02 03:07:40;;;;;;;5.18;1.58;;;;;;;15.27;65.56;99466.03;4974410;28;97814;-79
2023/11/02 03:10:09;;;;;;;7.47;1.83;;;;;;;15.11;65.66;99450.34;4975257;28;99112;-79
2023/11/02 03:12:39;;;;;;;3.08;1.20;;;;;;;15.16;65.50;99456.19;4974601;28;96802;-80
2023/11/02 03:15:07;;;;;;;5.75;1.45;;;;;;;15.05;65.65;99442.81;4971050;28;98728;-78
2023/11/02 03:17:48;;;;;;;4.13;1.42;;;;;;;15.04;66.15;99441.13;4971890;28;99326;-78
2023/11/02 03:20:16;;;;;;;7.00;1.67;;;;;;;15.01;65.77;99452.84;4969757;28;97521;-79
2023/11/02 03:22:45;;;;;;;3.17;1.15;;;;;;;15.06;65.57;99452.50;4969113;28;99809;-78
2023/11/02 03:25:31;;;;;;;4.03;1.40;;;;;;;15.04;65.69;99457.09;4974866;28;97260;-78
2023/11/02 03:28:08;;;;;;;1.67;1.17;;;;;;;15.07;65.16;99446.22;4970810;28;97749;-79
2023/11/02 03:30:46;;;;;;;3.83;1.02;;;;;;;15.04;65.56;99441.13;4971453;28;99023;-78
2023/11/02 03:33:22;;;;;;;5.88;1.35;;;;;;;15.03;65.20;99445.59;4971833;28;96779;-80
2023/11/02 03:35:55;;;;;;;4.43;1.40;;;;;;;15.12;64.87;99438.75;4968509;28;97117;-79
2023/11/02 03:38:28;;;;;;;3.33;1.40;;;;;;;15.19;64.65;99440.00;4972872;28;99795;-79
2023/11/02 03:41:09;;;;;;;3.45;1.60;;;;;;;14.99;65.17;99437.97;4978223;28;97008;-80
2023/11/02 03:43:46;;;;;;;8.73;1.55;;;;;;;15.07;65.07;99440.91;4978294;28;97919;-79
2023/11/02 03:46:21;;;;;;;5.05;1.20;;;;;;;15.08;64.95;99431.97;4969490;28;97232;-78
2023/11/02 03:49:04;;;;;;;5.88;1.42;;;;;;;14.89;65.54;99440.47;4971281;28;98105;-79
2023/11/02 03:51:38;;;;;;;2.42;1.25;;;;;;;14.80;65.77;99437.63;4970478;28;98949;-78
2023/11/02 03:54:21;;;;;;;2.85;1.30;;;;;;;14.61;66.55;99438.97;4969117;28;96960;-79
2023/11/02 03:57:03;;;;;;;3.97;1.00;;;;;;;14.86;65.37;99426.53;4971540;28;97148;-80
2023/11/02 03:59:37;;;;;;;8.88;1.10;;;;;;;14.80;65.95;99421.66;4971904;28;99245;-80
2023/11/02 04:02:07;;;;;;;5.43;1.40;;;;;;;14.83;65.70;99430.28;4966432;28;99815;-81
2023/11/02 04:04:40;;;;;;;3.60;1.27;;;;;;;14.81;65.87;99426.03;4970793;28;97084;-81
2023/11/02 04:07:18;;;;;;;3.45;1.10;;;;;;;14.83;65.25;99434.75;4974326;28;97060;-79
2023/11/02 04:09:50;;;;;;;4.40;1.38;;;;;;;14.82;65.45;99423.28;4967238;28;97813;-79
2023/11/02 04:12:28;;;;;;;3.58;1.20;;;;;;;14.74;65.70;99404.34;4977454;28;99298;-80
2023/11/02 04:14:57;;;;;;;3.72;1.30;;;;;;;14.70;65.98;99410.88;4967711;28;97606;-79
2023/11/02 04:17:24;;;;;;;4.45;1.50;;;;;;;14.63;65.81;99409.63;4975283;28;97420;-81
2023/11/02 04:19:51;;;;;;;4.43;1.00;;;;;;;14.57;66.25;99399.44;4971118;28;99567;-82
2023/11/02 04:22:17;;;;;;;4.40;1.33;;;;;;;14.64;65.92;99396.19;4971518;28;97442;-82
2023/11/02 04:24:45;;;;;;;3.05;1.23;;;;;;;14.51;66.60;99405.19;4975280;28;97966;-82
2023/11/02 04:27:12;;;;;;;4.85;1.42;;;;;;;14.55;66.01;99401.34;4970263;28;99052;-82
2023/11/02 04:29:38;;;;;;;4.68;1.50;;;;;;;14.47;66.28;99388.63;4970797;28;101934;-81
2023/11/02 04:32:05;;;;;;;3.20;1.42;;;;;;;14.51;65.62;99387.41;4975920;28;99052;-81
2023/11/02 04:34:32;;;;;;;4.60;1.20;;;;;;;14.67;65.28;99382.69;4979338;28;96798;-79
2023/11/02 04:36:59;;;;;;;2.95;1.00;;;;;;;14.45;65.79;99379.91;4986570;28;98096;-80
2023/11/02 04:39:25;;;;;;;2.67;0.93;;;;;;;14.59;65.56;99385.06;4979993;28;100547;-78
2023/11/02 04:41:53;;;;;;;3.92;1.45;;;;;;;14.63;65.57;99381.22;4978747;28;99105;-79
2023/11/02 04:44:20;;;;;;;7.28;1.48;;;;;;;14.69;65.29;99367.50;4974320;28;98479;-80
2023/11/02 04:46:46;;;;;;;6.97;1.17;;;;;;;14.53;65.64;99369.56;4976918;28;96811;-78
2023/11/02 04:49:14;;;;;;;9.25;1.45;;;;;;;14.52;65.49;99356.38;4976370;28;99557;-80
2023/11/02 04:51:54;;;;;;;4.40;1.25;;;;;;;14.35;66.56;99358.44;4971772;28;98966;-79
2023/11/02 04:54:24;;;;;;;4.25;1.40;;;;;;;14.52;66.21;99348.41;4968875;28;97031;-80
2023/11/02 04:56:51;;;;;;;6.57;1.92;;;;;;;14.51;65.69;99342.25;4972389;28;97020;-80
2023/11/02 04:59:19;;;;;;;4.35;1.48;;;;;;;14.40;66.52;99339.53;4970140;28;96766;-80
2023/11/02 05:01:45;;;;;;;3.78;2.20;;;;;;;14.32;66.68;99341.84;4972094;28;97676;-80
2023/11/02 05:04:11;;;;;;;4.05;1.20;;;;;;;14.44;65.95;99341.00;4972869;28;97798;-81
2023/11/02 05:06:38;;;;;;;2.25;1.00;;;;;;;14.25;66.46;99333.47;4975853;28;96818;-80
2023/11/02 05:09:05;;;;;;;2.92;1.35;;;;;;;14.26;66.90;99335.19;4968032;28;99040;-81
2023/11/02 05:11:32;;;;;;;7.70;1.63;;;;;;;14.46;66.35;99328.44;4967756;28;99441;-80
2023/11/02 05:13:59;;;;;;;7.90;1.55;;;;;;;14.29;66.72;99324.34;4971440;28;97206;-80
2023/11/02 05:16:26;;;;;;;6.30;1.80;;;;;;;14.49;66.01;99320.25;4969311;28;96780;-79
2023/11/02 05:18:53;;;;;;;2.67;1.35;;;;;;;14.33;66.49;99311.69;4969884;28;97870;-80
2023/11/02 05:21:19;;;;;;;3.08;1.15;;;;;;;14.32;66.50;99315.28;4971790;28;99496;-80
2023/11/02 05:23:46;;;;;;;6.80;1.42;;;;;;;14.27;66.51;99312.13;4971045;28;96733;-80
2023/11/02 05:26:13;;;;;;;3.75;1.20;;;;;;;14.30;66.90;99295.97;4969263;28;99798;-80
2023/11/02 05:28:39;;;;;;;2.08;1.23;;;;;;;14.15;67.23;99291.78;4969271;28;99116;-79
2023/11/02 05:31:06;;;;;;;2.83;0.95;;;;;;;14.07;67.66;99291.47;4964417;28;101513;-79
2023/11/02 05:33:34;;;;;;;4.72;1.15;;;;;;;13.84;68.81;99294.00;4966707;28;97193;-80
2023/11/02 05:36:00;;;;;;;5.93;1.58;;;;;;;13.94;68.40;99289.72;4964940;28;96951;-79
2023/11/02 05:38:26;;;;;;;4.53;1.30;;;;;;;14.10;67.93;99288.63;4969059;28;97140;-80
2023/11/02 05:40:53;;;;;;;3.90;1.27;;;;;;;14.08;67.80;99285.22;4971015;28;99364;-80
2023/11/02 05:43:19;;;;;;;4.28;1.30;;;;;;;13.94;68.03;99268.47;4971789;28;97016;-80
2023/11/02 05:45:46;;;;;;;5.97;1.63;;;;;;;14.01;67.84;99265.38;4969247;28;96860;-80
2023/11/02 05:48:12;;;;;;;7.40;1.38;;;;;;;13.96;68.05;99260.41;4970357;28;100781;-82
2023/11/02 05:50:40;;;;;;;3.38;1.67;;;;;;;14.02;67.91;99267.06;4969980;28;98800;-81
2023/11/02 05:53:06;;;;;;;2.72;1.42;;;;;;;13.89;68.49;99280.38;4969769;28;97003;-81
2023/11/02 05:55:33;;;;;;;5.53;1.50;;;;;;;14.03;67.83;99282.03;4972818;28;97281;-80
2023/11/02 05:57:59;;;;;;;4.05;2.13;;;;;;;13.94;68.32;99268.47;4973953;28;98913;-79
2023/11/02 06:00:26;;;;;;;6.22;1.40;;;;;;;13.89;68.35;99272.41;4969763;28;98049;-81
2023/11/02 06:02:52;;;;;;;4.55;1.65;;;;;;;13.83;68.71;99265.75;4966209;28;97022;-80
2023/11/02 06:05:19;;;;;;;4.15;1.70;;;;;;;13.85;68.83;99260.31;4966460;28;96894;-80
2023/11/02 06:07:49;;;;;;;6.30;1.98;;;;;;;13.85;69.01;99250.53;4969452;28;101432;-79
2023/11/02 06:10:15;;;;;;;4.60;1.70;;;;;;;13.83;69.29;99252.47;4976843;28;97554;-81
2023/11/02 06:12:41;;;;;;;6.55;2.08;;;;;;;13.95;68.48;99240.09;4971542;28;96874;-80
2023/11/02 06:15:09;;;;;;;8.75;1.52;;;;;;;13.79;69.20;99240.38;4968530;28;97189;-81
2023/11/02 06:17:36;;;;;;;6.43;2.13;;;;;;;13.62;69.79;99235.44;4970720;28;98111;-81
2023/11/02 06:20:06;;;;;;;5.93;1.65;;;;;;;13.80;69.35;99228.78;4972157;28;99006;-82
2023/11/02 06:22:32;;;;;;;10.57;2.00;;;;;;;13.80;69.26;99226.13;4968541;28;97612;-81
2023/11/02 06:25:00;;;;;;;5.00;1.65;;;;;;;13.79;69.49;99232.41;4971192;28;97431;-81
2023/11/02 06:27:27;;;;;;;5.25;1.63;;;;;;;13.88;68.96;99231.75;4970376;28;98948;-79
2023/11/02 06:29:54;;;;;;;7.82;1.95;;;;;;;13.89;69.18;99230.78;4970633;28;101361;-79
2023/11/02 06:32:21;;;;;;;9.30;1.90;;;;;;;13.79;69.51;99228.91;4968413;28;97224;-80
2023/11/02 06:34:47;;;;;;;9.93;2.10;;;;;;;13.72;69.71;99231.16;4970635;28;97341;-79
2023/11/02 06:37:18;;;;;;;4.43;2.00;;;;;;;14.00;69.39;99226.47;4965177;28;99268;-80
2023/11/02 06:39:45;;;;;;;4.82;2.13;;;;;;;14.28;68.13;99216.38;4970853;28;99652;-79
2023/11/02 06:42:13;;;;;;;10.57;2.10;;;;;;;13.96;69.01;99216.09;4962211;28;96706;-79
2023/11/02 06:44:43;;;;;;;9.02;2.10;;;;;;;13.86;69.50;99214.22;4968848;28;96804;-79
2023/11/02 06:47:10;;;;;;;5.65;1.90;;;;;;;13.98;68.89;99200.88;4967804;28;99062;-80
2023/11/02 06:49:37;;;;;;;6.45;2.35;;;;;;;14.01;68.72;99183.03;4967104;28;98820;-82
2023/11/02 06:52:04;;;;;;;4.97;2.08;;;;;;;14.09;68.74;99188.63;4968550;28;96821;-84
2023/11/02 06:54:30;;;;;;;6.85;1.80;;;;;;;14.15;68.25;99174.91;4976703;28;96794;-81
2023/11/02 06:56:57;;;;;;;4.20;2.20;;;;;;;14.10;68.50;99174.41;4968796;28;98860;-80
2023/11/02 06:59:24;;;;;;;5.38;2.22;;;;;;;14.10;68.41;99177.91;4964845;28;98874;-81
2023/11/02 07:01:52;;;;;;;5.80;2.08;;;;;;;14.07;68.59;99177.28;4969433;28;96772;-79
2023/11/02 07:04:19;;;;;;;7.90;2.55;;;;;;;14.17;67.89;99157.91;4964554;28;97982;-79
2023/11/02 07:06:46;;;;;;;4.72;2.30;;;;;;;14.27;67.19;99166.00;4957352;28;101138;-79
2023/11/02 07:09:13;;;;;;;8.15;2.20;;;;;;;14.43;67.00;99171.03;4962086;28;101371;-79
2023/11/02 07:11:40;;;;;;;6.15;1.90;;;;;;;14.41;67.01;99163.19;4966185;28;96872;-80
2023/11/02 07:14:06;;;;;;;5.32;2.03;;;;;;;14.53;66.83;99153.41;4963869;28;97129;-79
2023/11/02 07:16:34;;;;;;;7.53;1.90;;;;;;;14.51;65.85;99145.56;4964745;28;99177;-79
2023/11/02 07:19:01;;;;;;;4.28;1.80;;;;;;;14.64;65.98;99141.00;4969964;28;99108;-82
2023/11/02 07:21:28;;;;;;;4.97;2.22;;;;;;;14.56;66.18;99137.25;4959105;28;102728;-79
2023/11/02 07:23:54;;;;;;;5.18;2.60;;;;;;;14.55;66.38;99141.72;4965310;28;97205;-80
2023/11/02 07:26:21;;;;;;;7.93;2.28;;;;;;;14.53;65.95;99140.13;4965062;28;98969;-81
2023/11/02 07:28:47;;;;;;;8.95;2.55;;;;;;;14.93;64.89;99129.91;4968350;28;99893;-81
2023/11/02 07:31:13;;;;;;;6.88;2.28;;;;;;;14.96;64.34;99125.22;4966541;28;98131;-82
2023/11/02 07:33:42;;;;;;;3.90;2.00;;;;;;;15.12;64.08;99124.81;4976968;28;96791;-82
2023/11/02 07:36:14;;;;;;;7.93;2.55;;;;;;;14.96;64.81;99125.22;4970233;28;99287;-81
2023/11/02 07:38:41;;;;;;;8.85;2.42;;;;;;;15.20;63.77;99117.06;4972417;28;98891;-80
2023/11/02 07:41:07;;;;;;;5.72;2.20;;;;;;;15.20;63.57;99106.44;4971333;28;97161;-78
2023/11/02 07:43:34;;;;;;;5.70;2.13;;;;;;;15.11;63.74;99102.69;4970930;28;98529;-81
2023/11/02 07:46:01;;;;;;;7.57;2.20;;;;;;;15.04;64.36;99095.31;4971150;28;99401;-79
2023/11/02 07:48:27;;;;;;;7.90;2.20;;;;;;;15.18;63.55;99076.44;4963972;28;99148;-79
2023/11/02 07:50:55;;;;;;;8.63;2.40;;;;;;;14.97;64.48;99089.63;4973192;28;96952;-81
2023/11/02 07:53:22;;;;;;;7.93;2.28;;;;;;;14.92;64.43;99090.97;4974535;28;96781;-82
2023/11/02 07:55:49;;;;;;;10.57;2.17;;;;;;;15.22;63.97;99096.53;4973817;28;98735;-81
2023/11/02 07:58:15;;;;;;;4.85;1.98;;;;;;;15.29;63.10;99104.84;4967009;28;97670;-81
2023/11/02 08:00:42;;;;;;;3.45;2.10;;;;;;;15.46;62.59;99109.66;4959743;28;99100;-77
2023/11/02 08:03:08;;;;;;;4.05;2.15;;;;;;;15.44;62.82;99109.75;4968066;28;97327;-79
2023/11/02 08:05:35;;;;;;;3.92;2.15;;;;;;;15.43;62.95;99107.22;4972610;28;99220;-78
2023/11/02 08:08:03;;;;;;;5.15;2.22;;;;;;;15.66;62.23;99086.75;4963825;28;101638;-78
2023/11/02 08:10:30;;;;;;;5.82;1.95;;;;;;;15.57;61.92;99087.50;4969922;28;96940;-78
2023/11/02 08:12:57;;;;;;;5.22;2.63;;;;;;;15.83;61.91;99072.88;4966569;28;97133;-79
2023/11/02 08:15:29;;;;;;;6.80;2.30;;;;;;;15.61;62.18;99070.31;4966935;28;98917;-82
2023/11/02 08:17:56;;;;;;;6.97;2.00;;;;;;;15.59;61.54;99066.94;4967404;28;100303;-81
2023/11/02 08:20:23;;;;;;;8.15;2.08;;;;;;;15.78;61.10;99065.28;4965793;28;96748;-81
2023/11/02 08:22:50;;;;;;;3.20;1.88;;;;;;;15.49;61.50;99057.00;4972864;28;97182;-81
2023/11/02 08:25:26;;;;;;;7.20;1.85;;;;;;;15.35;63.25;99067.94;4968798;28;101376;-81
2023/11/02 08:28:02;;;;;;;8.80;2.53;;;;;;;15.78;61.88;99059.94;4964121;28;99142;-83
2023/11/02 08:30:29;;;;;;;3.20;1.90;;;;;;;15.70;61.93;99048.25;4972847;28;96889;-81
2023/11/02 08:35:37;;;;;;;7.70;2.45;;;;;;;15.78;61.50;99033.31;4953142;28;98849;-81
2023/11/02 08:38:04;;;;;;;8.35;2.63;;;;;;;15.49;62.56;99027.72;4968477;28;100862;-82
2023/11/02 08:40:31;;;;;;;6.72;2.20;;;;;;;15.70;62.11;99025.13;4966056;28;98708;-81
2023/11/02 08:42:58;;;;;;;3.60;1.80;;;;;;;15.86;62.01;99009.56;4964850;28;97336;-80
2023/11/02 08:45:24;;;;;;;4.68;2.03;;;;;;;15.97;61.75;99013.97;4970851;28;98179;-81
2023/11/02 08:47:51;;;;;;;4.28;2.00;;;;;;;16.21;60.68;99014.53;4971465;28;98932;-82
2023/11/02 08:50:18;;;;;;;7.32;2.05;;;;;;;16.32;60.10;99002.97;4965680;28;97004;-82
2023/11/02 08:52:44;;;;;;;9.82;1.98;;;;;;;16.18;59.86;98998.81;4965023;28;98111;-81
2023/11/02 08:55:11;;;;;;;2.85;1.70;;;;;;;16.18;60.04;98998.81;4972361;28;97675;-81
2023/11/02 08:57:39;;;;;;;5.55;1.50;;;;;;;16.03;60.83;98989.47;4963783;28;100611;-81
2023/11/02 09:00:16;;;;;;;7.55;2.00;;;;;;;16.00;61.10;98978.25;4979378;28;97140;-80
2023/11/02 09:02:43;;;;;;;6.70;2.45;;;;;;;15.95;60.65;98976.78;4960317;28;98840;-81
2023/11/02 09:05:10;;;;;;;2.75;1.70;;;;;;;15.69;61.59;98979.97;4956083;28;99094;-81
2023/11/02 09:07:36;;;;;;;7.30;2.00;;;;;;;16.19;60.63;98979.19;4961670;28;99157;-82
2023/11/02 09:10:07;;;;;;;6.53;1.73;;;;;;;16.15;60.33;98961.75;4964933;28;97916;-80
2023/11/02 09:12:38;;;;;;;4.70;1.75;;;;;;;15.98;60.65;98959.72;4965832;28;97161;-82
2023/11/02 09:15:08;;;;;;;2.90;1.65;;;;;;;16.31;59.63;98953.28;4967849;28;101606;-81
2023/11/02 09:17:35;;;;;;;8.63;2.03;;;;;;;16.53;58.69;98949.59;4968965;28;100364;-82
2023/11/02 09:20:04;;;;;;;3.13;1.50;;;;;;;16.44;59.31;98950.41;4968451;28;97192;-79
2023/11/02 09:22:30;;;;;;;4.95;1.27;;;;;;;16.47;59.06;98948.31;4971635;28;97692;-81
2023/11/02 09:24:58;;;;;;;3.40;1.73;;;;;;;16.42;59.26;98942.53;4969276;28;99444;-81
2023/11/02 09:27:24;;;;;;;6.55;1.55;;;;;;;16.62;58.86;98941.66;4965231;28;99791;-82
2023/11/02 09:29:51;;;;;;;6.97;1.52;;;;;;;16.45;58.48;98941.44;4970539;28;98080;-82
2023/11/02 09:32:19;;;;;;;2.88;1.55;;;;;;;16.63;58.61;98934.50;4969428;28;97439;-80
2023/11/02 09:34:45;;;;;;;4.63;1.65;;;;;;;16.54;58.53;98935.28;4964776;28;100372;-80
2023/11/02 09:37:12;;;;;;;1.98;1.55;;;;;;;16.65;58.51;98924.53;4969953;28;98509;-79
2023/11/02 09:39:38;;;;;;;7.55;1.70;;;;;;;16.69;58.40;98915.28;4967671;28;96860;-81
2023/11/02 09:42:05;;;;;;;3.53;1.75;;;;;;;16.83;58.24;98914.03;4967694;28;96993;-80
2023/11/02 09:44:32;;;;;;;6.57;1.80;;;;;;;17.07;57.21;98914.47;4970078;28;98390;-82
2023/11/02 09:46:58;;;;;;;3.42;1.52;;;;;;;17.10;57.28;98899.06;4967298;28;102138;-81
2023/11/02 09:49:26;;;;;;;2.35;1.38;;;;;;;17.40;55.91;98895.38;4965959;28;98752;-76
2023/11/02 09:51:55;;;;;;;2.55;1.65;;;;;;;17.54;55.12;98899.44;4968575;28;96868;-75
2023/11/02 09:54:22;;;;;;;3.65;1.45;;;;;;;17.66;55.07;98892.97;4963921;28;98980;-75
2023/11/02 09:56:48;;;;;;;6.63;1.90;;;;;;;17.95;54.78;98900.09;4967243;28;98852;-76
2023/11/02 09:59:15;;;;;;;11.32;1.45;;;;;;;17.79;54.23;98869.47;4967596;28;98725;-76
2023/11/02 10:01:41;;;;;;;4.65;1.70;;;;;;;17.70;54.21;98865.00;4966183;28;96871;-76
2023/11/02 10:04:09;;;;;;;3.13;1.65;;;;;;;17.96;54.73;98885.75;4964352;28;98944;-75
2023/11/02 10:06:37;;;;;;;4.28;2.00;;;;;;;18.11;53.44;98881.63;4965625;28;99232;-76
2023/11/02 10:09:03;;;;;;;4.47;1.40;;;;;;;17.54;54.38;98867.38;4966883;28;98044;-75
2023/11/02 10:11:30;;;;;;;4.00;1.30;;;;;;;17.46;54.78;98833.38;4967404;28;98654;-76
2023/11/02 10:13:57;;;;;;;6.68;1.63;;;;;;;17.58;54.56;98806.53;4965791;28;99248;-75
2023/11/02 10:16:24;;;;;;;3.88;1.10;;;;;;;17.34;55.61;98796.31;4966938;28;99091;-75
2023/11/02 10:18:50;;;;;;;1.95;1.30;;;;;;;17.27;56.13;98800.56;4962076;28;99418;-75
2023/11/02 10:21:17;;;;;;;2.35;1.30;;;;;;;17.23;55.25;98800.00;4968601;28;97023;-74
2023/11/02 10:23:53;;;;;;;12.85;1.80;;;;;;;17.58;54.87;98801.19;4967759;28;101525;-75
2023/11/02 10:26:24;;;;;;;14.45;2.08;;;;;;;17.50;54.92;98801.91;4969958;28;99125;-75
2023/11/02 10:31:53;;;;;;;3.83;1.50;;;;;;;18.03;53.65;98820.03;4964551;28;97053;-75
2023/11/02 10:34:20;;;;;;;3.03;1.33;;;;;;;18.17;52.67;98800.84;4965451;28;98917;-76
2023/11/02 10:36:47;;;;;;;2.40;1.30;;;;;;;18.11;52.90;98780.06;4965364;28;98901;-75
2023/11/02 10:39:19;;;;;;;2.35;1.30;;;;;;;18.20;52.51;98782.66;4966259;28;97288;-75
2023/11/02 10:41:56;;;;;;;4.68;1.40;;;;;;;17.97;53.08;98781.38;4961798;28;97029;-75
2023/11/02 10:44:27;;;;;;;2.38;1.23;;;;;;;17.88;53.72;98780.44;4960554;28;98924;-76
2023/11/02 10:46:58;;;;;;;3.20;0.88;;;;;;;17.87;53.87;98773.41;4961037;28;98140;-75
2023/11/02 10:49:27;;;;;;;3.90;1.23;;;;;;;17.82;53.68;98764.16;4964531;28;97112;-75
2023/11/02 10:51:56;;;;;;;6.45;1.20;;;;;;;17.63;53.01;98741.03;4969309;28;96768;-75
2023/11/02 10:54:33;;;;;;;4.22;2.10;;;;;;;17.85;53.00;98729.94;4963631;28;99027;-75
2023/11/02 10:57:06;;;;;;;3.50;1.20;;;;;;;17.70;53.41;98722.59;4967993;28;99161;-75
2023/11/02 10:59:34;;;;;;;1.55;1.25;;;;;;;17.83;52.92;98715.09;4970358;28;96782;-78
2023/11/02 11:02:01;;;;;;;4.68;1.10;;;;;;;17.68;53.03;98713.88;4973929;28;97380;-75
2023/11/02 11:04:28;;;;;;;1.60;1.10;;;;;;;17.68;53.06;98729.91;4961055;28;98803;-75
2023/11/02 11:06:57;;;;;;;1.58;0.93;;;;;;;17.70;52.42;98727.94;4966431;28;98960;-74
2023/11/02 11:09:28;;;;;;;3.85;1.23;;;;;;;17.71;52.22;98719.78;4970252;28;98317;-74
2023/11/02 11:11:58;;;;;;;5.72;1.15;;;;;;;17.76;52.34;98712.16;4966530;28;97062;-75
2023/11/02 11:14:27;;;;;;;2.28;0.98;;;;;;;17.63;52.09;98706.34;4966697;28;99295;-75
2023/11/02 11:16:56;;;;;;;2.33;1.00;;;;;;;17.37;52.94;98706.13;4968476;28;98363;-74
2023/11/02 11:19:23;;;;;;;5.57;1.10;;;;;;;17.58;52.54;98686.38;4962457;28;97002;-76
2023/11/02 11:21:51;;;;;;;4.97;1.77;;;;;;;17.52;52.40;98682.47;4971055;28;97193;-76
2023/11/02 11:24:18;;;;;;;5.30;1.20;;;;;;;17.56;52.12;98691.00;4967134;28;98877;-76
2023/11/02 11:26:50;;;;;;;7.35;1.20;;;;;;;17.56;51.79;98683.00;4967521;28;98883;-76
2023/11/02 11:29:33;;;;;;;5.85;1.42;;;;;;;17.66;51.74;98684.66;4972306;28;96825;-76
2023/11/02 11:32:00;;;;;;;5.03;1.20;;;;;;;18.03;50.87;98665.88;4968436;28;96932;-76
2023/11/02 11:34:26;;;;;;;5.65;1.10;;;;;;;17.96;50.62;98661.28;4972945;28;99035;-77
2023/11/02 11:37:33;;;;;;;1.83;1.10;;;;;;;17.96;50.33;98640.75;4961050;28;98830;-76
2023/11/02 11:39:59;;;;;;;2.65;1.27;;;;;;;18.11;50.15;98631.22;4965248;28;96815;-76
2023/11/02 11:43:01;;;;;;;4.82;1.45;;;;;;;18.16;50.06;98623.56;4964566;28;97394;-77
2023/11/02 11:45:30;;;;;;;3.60;1.40;;;;;;;18.44;49.18;98626.16;4966246;28;100785;-74
2023/11/02 11:47:56;;;;;;;1.65;1.15;;;;;;;18.26;49.08;98628.81;4962542;28;98920;-75
2023/11/02 11:50:33;;;;;;;4.20;1.27;;;;;;;18.50;48.87;98630.88;4967800;28;99636;-76